• Join FlightAware (Why Join?)
  • Login
  • US Flag 
12:01AM EDT


 

Airport Tracker/Info


-or-


 

Live Flight TrackerFlight Track Log ✈ SWA1385 ✈ 25-May-2013 ✈ KPIT - KPHX

Flight Track Log - Related Links

Times and Time Zones

All times are in EDT time to prevent confusion due to time zone crossing. See the SWA1385 flight status page for this flight to view local times or setup timezone preferences in your user account.

Time Position Orientation Groundspeed Altitude Reporting Facility
EDT Latitude Longitude Course Direction KTS MPH feet Rate Location/Type
03:13PM 40.5006 -80.3619 266° West 194 223 4,500  Level Cleveland Center
03:14PM 40.5006 -80.4439 270° West 205 236 6,500 2,640 Climbing Cleveland Center
03:15PM 40.4986 -80.5422 269° West 240 276 9,800 2,520 Climbing Cleveland Center
03:16PM 40.4967 -80.6542 269° West 278 320 11,600 2,400 Climbing Cleveland Center
03:17PM 40.4667 -81.0508 270° West  Level FlightAware Approximate
03:17PM 40.4944 -80.7825 269° West 323 372 14,600  Level Cleveland Center
03:18PM 40.4612 -81.1900 266° West  Level FlightAware Approximate
03:18PM 40.4919 -80.9133 269° West 348 400 17,700  Level Cleveland Center
03:19PM 40.4894 -81.0528 269° West 371 427 20,100 2,520 Climbing Cleveland Center
03:20PM 40.4844 -81.1919 267° West 376 433 22,800 2,100 Climbing Cleveland Center
03:21PM 40.4772 -81.4358 268° West 396 456 25,800 1,740 Climbing Indianapolis Center
03:22PM 40.4736 -81.5892 268° West 409 471 27,600 1,980 Climbing Indianapolis Center
03:23PM 40.4689 -81.7417 268° West 412 474 29,900 2,160 Climbing Indianapolis Center
03:24PM 40.4653 -81.8869 268° West 398 458 32,100 2,280 Climbing Indianapolis Center
03:26PM 40.4611 -82.0250 268° West 379 436 34,600 1,860 Climbing Indianapolis Center
03:27PM 40.4567 -82.1567 268° West 362 417 36,000 660 Climbing Indianapolis Center
03:28PM 40.4431 -82.3114 263° West 362 417 36,000  Level Indianapolis Center
03:29PM 40.4325 -82.4447 264° West 363 418 36,000  Level Indianapolis Center
03:30PM 40.4206 -82.5789 263° West 368 423 36,000  Level Indianapolis Center
03:31PM 40.4092 -82.7144 264° West 370 426 36,000  Level Indianapolis Center
03:32PM 40.3972 -82.8553 264° West 370 426 36,000  Level Indianapolis Center
03:33PM 40.3856 -82.9900 264° West 368 423 36,000 -60 Level Indianapolis Center
03:34PM 40.3736 -83.1242 263° West 369 425 35,900  Descending Indianapolis Center
03:35PM 40.3614 -83.2597 263° West 372 428 36,000  Climbing Indianapolis Center
03:36PM 40.3492 -83.3947 263° West 373 429 36,000  Level Indianapolis Center
03:37PM 40.3364 -83.5314 263° West 376 433 36,000  Level Indianapolis Center
03:38PM 40.3236 -83.6689 263° West 379 436 36,000  Level Indianapolis Center
03:39PM 40.3081 -83.8322 263° West 384 442 36,000  Level Indianapolis Center
03:40PM 40.2947 -83.9700 263° West 382 440 36,000  Level Indianapolis Center
03:41PM 40.2767 -84.1100 260° West 388 447 36,000  Level Indianapolis Center
03:42PM 40.2469 -84.2500 254° West 396 456 36,000  Level Indianapolis Center
03:43PM 40.2203 -84.3894 256° West 394 453 36,000  Level Indianapolis Center
03:44PM 40.1944 -84.5292 256° West 393 452 36,000  Level Indianapolis Center
03:45PM 40.1644 -84.6692 254° West 396 456 36,000  Level Indianapolis Center
03:46PM 40.1367 -84.8075 255° West 393 452 36,000  Level Indianapolis Center
03:47PM 40.1111 -84.9378 256° West 392 451 36,000  Level Indianapolis Center
03:48PM 40.0783 -85.1022 255° West 392 451 36,000  Level Indianapolis Center
03:49PM 40.0506 -85.2394 255° West 392 451 36,000  Level Indianapolis Center
03:50PM 40.0225 -85.3772 255° West 394 453 36,000  Level Indianapolis Center
03:51PM 39.9936 -85.5136 255° West 393 452 36,000  Level Indianapolis Center
03:52PM 39.9653 -85.6522 255° West 395 455 36,000  Level Indianapolis Center
03:53PM 39.9397 -85.7900 256° West 393 452 36,000  Level Indianapolis Center
03:54PM 39.9231 -85.9283 261° West 390 449 36,000  Level Indianapolis Center
03:55PM 39.9022 -86.0925 261° West 388 447 36,000  Level Indianapolis Center
03:56PM 39.8844 -86.2294 260° West 391 450 36,000  Level Indianapolis Center
03:57PM 39.8667 -86.3656 260° West 392 451 36,000  Level Indianapolis Center
03:58PM 39.8475 -86.5025 260° West 392 451 36,000  Level Indianapolis Center
03:59PM 39.8283 -86.6408 260° West 393 452 36,000  Level Indianapolis Center
04:00PM 39.8050 -86.8064 260° West 392 451 36,000  Level Indianapolis Center
04:01PM 39.7856 -86.9447 260° West 391 450 36,000  Level Indianapolis Center
04:02PM 39.7661 -87.0833 260° West 391 450 36,000  Level Indianapolis Center
04:03PM 39.7467 -87.2214 260° West 391 450 36,000  Level Indianapolis Center
04:04PM 39.7275 -87.3608 260° West 393 452 36,000  Level Indianapolis Center
04:06PM 39.7067 -87.4992 259° West 392 451 36,000  Level Indianapolis Center
04:07PM 39.6869 -87.6392 260° West 394 453 36,000 60 Level Indianapolis Center
04:08PM 39.6667 -87.7792 259° West 396 456 36,200 780 Climbing Indianapolis Center
04:09PM 39.6414 -87.9453 259° West 393 452 37,700 840 Climbing Indianapolis Center
04:10PM 39.6214 -88.0833 259° West 392 451 38,000 120 Climbing Indianapolis Center
04:11PM 39.6006 -88.2219 259° West 393 452 38,000  Level Indianapolis Center
04:12PM 39.5792 -88.3603 259° West 395 455 38,000  Level Indianapolis Center
04:13PM 39.5578 -88.5011 259° West 397 457 38,000  Level Indianapolis Center
04:14PM 39.5364 -88.6411 259° West 396 456 38,000  Level Indianapolis Center
04:15PM 39.5158 -88.7831 259° West 397 457 38,000  Level Indianapolis Center
04:16PM 39.4933 -88.9244 258° West 399 459 38,000  Level Indianapolis Center
04:17PM 39.4642 -89.1000 258° West 403 464 38,000  Level Kansas City Center
04:18PM 39.4417 -89.2436 259° West 406 467 38,000  Level Kansas City Center
04:19PM 39.4175 -89.3919 258° West 404 465 38,000  Level Kansas City Center
04:20PM 39.3944 -89.5333 258° West 405 466 38,000  Level Kansas City Center
04:21PM 39.3711 -89.6769 258° West 408 470 38,000  Level Kansas City Center
04:22PM 39.3475 -89.8203 258° West 410 472 38,000  Level Kansas City Center
04:23PM 39.3242 -89.9622 258° West 408 470 38,000  Level Kansas City Center
04:24PM 39.3006 -90.1042 258° West 407 468 38,000  Level Kansas City Center
04:25PM 39.2719 -90.2744 258° West 408 470 38,000  Level Kansas City Center
04:26PM 39.2472 -90.4153 257° West 407 468 38,000  Level Kansas City Center
04:27PM 39.2239 -90.5553 258° West 404 465 38,000  Level Kansas City Center
04:28PM 39.2000 -90.6944 258° West 402 463 38,000  Level Kansas City Center
04:29PM 39.1761 -90.8311 257° West 399 459 38,000  Level Kansas City Center
04:30PM 39.1511 -90.9675 257° West 396 456 38,000  Level Kansas City Center
04:31PM 39.1225 -91.1319 257° West 395 455 38,000  Level Kansas City Center
04:32PM 39.0975 -91.2694 257° West 395 455 38,000  Level Kansas City Center
04:33PM 39.0733 -91.4111 258° West 397 457 38,000  Level Kansas City Center
04:34PM 39.0497 -91.5442 257° West 395 455 38,000  Level Kansas City Center
04:35PM 39.0247 -91.6822 257° West 397 457 38,000  Level Kansas City Center
04:36PM 38.9972 -91.8269 256° West 402 463 38,000  Level Kansas City Center
04:37PM 38.9714 -91.9661 257° West 402 463 38,000  Level Kansas City Center
04:38PM 38.9447 -92.1044 256° West 402 463 38,000  Level Kansas City Center
04:39PM 38.9189 -92.2453 257° West 404 465 38,000  Level Kansas City Center
04:40PM 38.8864 -92.4122 256° West 403 464 38,000  Level Kansas City Center
04:41PM 38.8592 -92.5517 256° West 403 464 38,000  Level Kansas City Center
04:42PM 38.8322 -92.6936 256° West 407 468 38,000  Level Kansas City Center
04:43PM 38.8036 -92.8369 256° West 412 474 38,000  Level Kansas City Center
04:44PM 38.7750 -92.9806 256° West 415 478 38,000  Level Kansas City Center
04:46PM 38.7478 -93.1206 256° West 411 473 38,000  Level Kansas City Center
04:47PM 38.7203 -93.2622 256° West 410 472 38,000  Level Kansas City Center
04:48PM 38.6914 -93.4019 255° West 408 470 38,000  Level Kansas City Center
04:49PM 38.6592 -93.5694 256° West 406 467 38,000  Level Kansas City Center
04:50PM 38.6308 -93.7081 255° West 404 465 38,000  Level Kansas City Center
04:51PM 38.6025 -93.8431 255° West 406 467 38,000  Level Kansas City Center
04:52PM 38.5758 -93.9767 256° West 406 467 38,000  Level Kansas City Center
04:53PM 38.5447 -94.1306 256° West 402 463 38,000  Level Kansas City Center
04:54PM 38.5161 -94.2644 255° West 407 468 38,000  Level Kansas City Center
04:55PM 38.4878 -94.3986 255° West 407 468 38,000  Level Kansas City Center
04:56PM 38.4553 -94.5567 255° West 409 471 38,000  Level Kansas City Center
04:57PM 38.4264 -94.6911 255° West 409 471 38,000  Level Kansas City Center
04:58PM 38.3939 -94.8472 255° West 408 470 38,000  Level Kansas City Center
04:59PM 38.3647 -94.9794 254° West 405 466 38,000  Level Kansas City Center
05:00PM 38.3372 -95.1131 255° West 405 466 38,000  Level Kansas City Center
05:01PM 38.3031 -95.2650 254° West 403 464 38,000  Level Kansas City Center
05:02PM 38.2750 -95.3967 255° West 401 461 38,000  Level Kansas City Center
05:03PM 38.2461 -95.5253 254° West 397 457 38,000  Level Kansas City Center
05:04PM 38.2128 -95.6786 255° West 401 461 38,000  Level Kansas City Center
05:05PM 38.1833 -95.8094 254° West 403 464 38,000  Level Kansas City Center
05:06PM 38.1486 -95.9625 254° West 402 463 38,000  Level Kansas City Center
05:07PM 38.1197 -96.0947 255° West 404 465 38,000  Level Kansas City Center
05:08PM 38.0883 -96.2289 253° West 407 468 38,000  Level Kansas City Center
05:09PM 38.0572 -96.3678 254° West 409 471 38,000  Level Kansas City Center
05:10PM 38.0250 -96.5050 253° West 408 470 38,000  Level Kansas City Center
05:11PM 37.9939 -96.6431 254° West 407 468 38,000  Level Kansas City Center
05:12PM 37.9553 -96.8078 253° West 406 467 38,000  Level Kansas City Center
05:13PM 37.9233 -96.9442 254° West 403 464 38,000  Level Kansas City Center
05:14PM 37.8914 -97.0792 253° West 401 461 38,000  Level Kansas City Center
05:15PM 37.8592 -97.2158 253° West 403 464 38,000  Level Kansas City Center
05:16PM 37.8264 -97.3519 253° West 404 465 38,000  Level Kansas City Center
05:17PM 37.7958 -97.4800 253° West 406 467 38,000  Level Kansas City Center
05:18PM 37.7547 -97.6431 252° West 406 467 38,000  Level Kansas City Center
05:19PM 37.7233 -97.7831 254° West 410 472 38,000  Level Kansas City Center
05:20PM 37.6892 -97.9200 253° West 410 472 38,000  Level Kansas City Center
05:21PM 37.6569 -98.0556 253° West 405 466 38,000  Level Kansas City Center
05:22PM 37.6261 -98.1797 253° West 401 461 38,000  Level Kansas City Center
05:23PM 37.5917 -98.3158 252° West 405 466 38,000  Level Kansas City Center
05:24PM 37.5589 -98.4500 253° West 402 463 38,000  Level Kansas City Center
05:25PM 37.5186 -98.6114 253° West 402 463 38,000  Level Kansas City Center
05:26PM 37.4856 -98.7447 253° West 399 459 38,000  Level Kansas City Center
05:27PM 37.4522 -98.8789 253° West 401 461 38,000  Level Kansas City Center
05:28PM 37.4169 -99.0114 252° West 400 460 38,000  Level Kansas City Center
05:30PM 37.3819 -99.1431 252° West 398 458 38,000  Level Kansas City Center
05:31PM 37.3472 -99.2761 252° West 399 459 38,000  Level Kansas City Center
05:32PM 37.3122 -99.4097 252° West 402 463 38,000  Level Kansas City Center
05:33PM 37.2764 -99.5553 253° West 399 459 38,000  Level Kansas City Center
05:34PM 37.2422 -99.6836 252° West 402 463 38,000  Level Kansas City Center
05:35PM 37.2033 -99.8331 252° West 403 464 38,000  Level Kansas City Center
05:36PM 37.1706 -99.9603 252° West 401 461 38,000  Level Kansas City Center
05:37PM 37.1356 -100.0875 251° West 402 463 38,000  Level Kansas City Center
05:38PM 37.0956 -100.2381 252° West 405 466 38,000  Level Kansas City Center
05:39PM 37.0614 -100.3664 252° West 405 466 38,000  Level Kansas City Center
05:40PM 37.0203 -100.5150 251° West 404 465 38,000  Level Kansas City Center
05:41PM 36.9858 -100.6439 252° West 406 467 38,000  Level Kansas City Center
05:42PM 36.9506 -100.7722 251° West 406 467 38,000  Level Kansas City Center
05:43PM 36.9106 -100.9197 251° West 403 464 38,000  Level Kansas City Center
05:44PM 36.8739 -101.0483 250° West 406 467 38,000  Level Kansas City Center
05:45PM 36.8331 -101.1958 251° West 403 464 38,000  Level Kansas City Center
05:46PM 36.7983 -101.3217 251° West 402 463 38,000  Level Kansas City Center
05:47PM 36.7628 -101.4483 251° West 402 463 38,000  Level Kansas City Center
05:48PM 36.7208 -101.5956 250° West 403 464 38,000  Level Kansas City Center
05:48PM 36.7094 -101.6397 252° West 405 466 38,000  Level Albuquerque Center
05:49PM 36.6681 -101.7867 251° West 404 465 38,000  Level Albuquerque Center
05:50PM 36.6311 -101.9150 250° West 408 470 38,000  Level Albuquerque Center
05:51PM 36.5892 -102.0628 251° West 408 470 38,000  Level Albuquerque Center
05:52PM 36.5514 -102.1947 250° West 408 470 38,000  Level Albuquerque Center
05:53PM 36.5131 -102.3269 250° West 409 471 38,000  Level Albuquerque Center
05:54PM 36.4739 -102.4594 250° West 409 471 38,000  Level Albuquerque Center
05:56PM 36.4419 -102.5936 254° West 407 468 38,000  Level Albuquerque Center
05:57PM 36.4169 -102.7294 257° West 407 468 38,000  Level Albuquerque Center
05:58PM 36.3858 -102.8839 256° West 405 466 38,000  Level Albuquerque Center
05:59PM 36.3603 -103.0217 257° West 406 467 38,000  Level Albuquerque Center
06:00PM 36.3336 -103.1569 256° West 404 465 38,000  Level Albuquerque Center
06:01PM 36.3072 -103.2942 257° West 406 467 38,000  Level Albuquerque Center
06:02PM 36.2792 -103.4294 256° West 405 466 38,000  Level Albuquerque Center
06:03PM 36.2517 -103.5642 256° West 402 463 38,000  Level Albuquerque Center
06:04PM 36.2247 -103.6983 256° West 400 460 38,000  Level Albuquerque Center
06:05PM 36.1961 -103.8342 255° West 404 465 38,000  Level Albuquerque Center
06:06PM 36.1692 -103.9694 256° West 404 465 38,000  Level Albuquerque Center
06:07PM 36.1411 -104.1033 255° West 402 463 38,000  Level Albuquerque Center
06:08PM 36.1117 -104.2336 254° West 396 456 38,000  Level Albuquerque Center
06:09PM 36.0792 -104.3908 256° West 401 461 38,000  Level Albuquerque Center
06:10PM 36.0508 -104.5233 255° West 399 459 38,000  Level Albuquerque Center
06:11PM 36.0236 -104.6567 256° West 399 459 38,000  Level Albuquerque Center
06:12PM 35.9947 -104.7903 255° West 401 461 38,000  Level Albuquerque Center
06:13PM 35.9650 -104.9244 255° West 403 464 38,000  Level Albuquerque Center
06:14PM 35.9347 -105.0611 255° West 408 470 38,000  Level Albuquerque Center
06:15PM 35.9053 -105.1944 255° West 404 465 38,000  Level Albuquerque Center
06:16PM 35.8758 -105.3300 255° West 405 466 38,000  Level Albuquerque Center
06:17PM 35.8469 -105.4644 255° West 405 466 38,000  Level Albuquerque Center
06:18PM 35.8164 -105.5997 254° West 407 468 38,000  Level Albuquerque Center
06:19PM 35.7867 -105.7347 255° West 410 472 38,000  Level Albuquerque Center
06:20PM 35.7561 -105.8683 254° West 408 470 38,000  Level Albuquerque Center
06:21PM 35.7261 -106.0031 255° West 408 470 38,000  Level Albuquerque Center
06:22PM 35.6961 -106.1361 255° West 407 468 38,000  Level Albuquerque Center
06:23PM 35.6628 -106.2947 256° West 405 466 38,000  Level Albuquerque Center
06:24PM 35.6300 -106.4286 253° West 405 466 38,000  Level Albuquerque Center
06:25PM 35.6011 -106.5594 255° West 401 461 38,000  Level Albuquerque Center
06:26PM 35.5700 -106.6914 254° West 403 464 38,000  Level Albuquerque Center
06:27PM 35.5392 -106.8231 254° West 403 464 38,000  Level Albuquerque Center
06:28PM 35.5078 -106.9569 254° West 408 470 38,000  Level Albuquerque Center
06:29PM 35.4764 -107.0894 254° West 408 470 38,000  Level Albuquerque Center
06:30PM 35.4431 -107.2286 254° West 406 467 38,000  Level Albuquerque Center
06:31PM 35.4072 -107.3761 253° West 404 465 38,000  Level Albuquerque Center
06:32PM 35.3764 -107.5036 254° West 405 466 38,000  Level Albuquerque Center
06:33PM 35.3461 -107.6311 254° West 406 467 38,000  Level Albuquerque Center
06:34PM 35.3103 -107.7794 254° West 406 467 38,000  Level Albuquerque Center
06:35PM 35.2786 -107.9064 253° West 406 467 38,000  Level Albuquerque Center
06:36PM 35.2419 -108.0550 253° West 407 468 38,000  Level Albuquerque Center
06:37PM 35.2119 -108.1817 254° West 405 466 38,000  Level Albuquerque Center
06:38PM 35.1792 -108.3092 253° West 407 468 38,000  Level Albuquerque Center
06:39PM 35.1436 -108.4575 254° West 407 468 38,000  Level Albuquerque Center
06:40PM 35.1108 -108.5864 253° West 411 473 38,000  Level Albuquerque Center
06:41PM 35.0792 -108.7133 253° West 409 471 38,000  Level Albuquerque Center
06:42PM 35.0428 -108.8619 253° West 409 471 38,000  Level Albuquerque Center
06:43PM 35.0086 -108.9875 252° West 407 468 38,000  Level Albuquerque Center
06:45PM 34.9678 -109.1103 248° West 406 467 38,000  Level Albuquerque Center
06:46PM 34.9189 -109.2508 247° West 403 464 38,000  Level Albuquerque Center
06:47PM 34.8781 -109.3717 248° West 403 464 38,000 -960 Level Albuquerque Center
06:48PM 34.8372 -109.4892 247° West 396 456 36,100 -1,020 Descending Albuquerque Center
06:49PM 34.7881 -109.6242 246° West 389 448 36,000 -60 Descending Albuquerque Center
06:50PM 34.7469 -109.7472 248° West 403 464 36,000  Level Albuquerque Center
06:51PM 34.6967 -109.8894 247° West 408 470 36,000  Level Albuquerque Center
06:52PM 34.6525 -110.0078 246° West 405 466 36,000  Level Albuquerque Center
06:53PM 34.6092 -110.1308 247° West 411 473 36,000 -600 Level Albuquerque Center
06:54PM 34.5608 -110.2717 247° West 407 468 34,900 -1,920 Descending Albuquerque Center
06:55PM 34.5122 -110.3819 242° Southwest 394 453 32,200 -2,220 Descending Albuquerque Center
06:56PM 34.4700 -110.5097 248° West 398 458 30,400 -1,860 Descending Albuquerque Center
06:57PM 34.4267 -110.6233 245° Southwest 378 435 28,500 -1,860 Descending Albuquerque Center
06:58PM 34.3842 -110.7319 245° Southwest 364 419 26,600 -1,920 Descending Albuquerque Center
06:59PM 34.3261 -110.8347 236° Southwest 371 427 24,600 -1,980 Descending Albuquerque Center
07:00PM 34.2544 -110.9244 226° Southwest 371 427 22,600 -1,920 Descending Albuquerque Center
07:01PM 34.1875 -111.0111 227° Southwest 361 415 20,700 -1,860 Descending Albuquerque Center
07:02PM 34.1242 -111.0936 227° Southwest 344 396 18,900 -1,860 Descending Albuquerque Center
07:03PM 34.0611 -111.1733 226° Southwest 333 383 17,000 -1,980 Descending Albuquerque Center
07:04PM 33.9903 -111.2664 227° Southwest 322 371 14,900 -1,920 Descending Albuquerque Center
07:05PM 33.9317 -111.3400 226° Southwest 307 353 13,100 -1,380 Descending Albuquerque Center
07:06PM 33.8761 -111.4117 227° Southwest 294 338 12,100 -1,080 Descending Albuquerque Center
07:07PM 33.8142 -111.4628 214° Southwest 271 312 11,000 -1,020 Descending Albuquerque Center
07:08PM 33.7514 -111.5183 216° Southwest 276 318 10,100 -960 Descending Albuquerque Center
07:09PM 33.6894 -111.5703 215° Southwest 272 313 9,100 -840 Descending Albuquerque Center
07:10PM 33.6314 -111.6197 215° Southwest 257 296 8,400 -900 Descending Albuquerque Center
07:11PM 33.5764 -111.6675 216° Southwest 245 282 7,300 -1,020 Descending Albuquerque Center
07:12PM 33.5372 -111.7297 233° Southwest 233 268 6,400 -1,080 Descending Albuquerque Center
07:13PM 33.4986 -111.7900 232° Southwest 228 262 5,200 -1,260 Descending Albuquerque Center
07:14PM 33.4642 -111.8436 232° Southwest 207 238 3,900 -1,140 Descending Albuquerque Center
07:15PM 33.4414 -111.8975 243° Southwest 194 223 2,900 -1,020 Descending Albuquerque Center
07:16PM 33.4333 -111.9333 255° West 155 178 2,500 -1,080 Descending Phoenix TRACON
07:17PM 33.4333 -111.9833 270° West 148 170 1,300 -1,140 Descending Phoenix TRACON
07:19PM 33.4343 -112.0116 270° West  Level Estimated